Time;durP1;ratioP1;P1;durP2;ratioP2;P2;SDS_P1;SDS_P2;PMS_P1;PMS_P2;Temp;Humidity;BMP_temperature;BMP_pressure;BME280_temperature;BME280_humidity;BME280_pressure;Samples;Min_cycle;Max_cycle;Signal;HPM_P1;HPM_P2
2022/04/03 00:00:09;;;;;;;19.00;9.00;;;;;;;-1.13;50.04;100095.75;110988;1252;21972;-75
2022/04/03 00:03:04;;;;;;;15.10;8.00;;;;;;;-1.14;50.06;100097.40;111300;1252;21971;-77
2022/04/03 00:05:38;;;;;;;17.20;8.10;;;;;;;-1.17;50.09;100095.85;110204;1257;22019;-76
2022/04/03 00:08:09;;;;;;;18.10;8.70;;;;;;;-1.18;50.12;100094.70;110699;1257;21961;-77
2022/04/03 00:10:42;;;;;;;14.20;6.70;;;;;;;-1.19;50.23;100096.16;110381;1257;21965;-78
2022/04/03 00:13:11;;;;;;;;;;;;;;;-1.22;50.20;100092.39;110554;1257;21965;-77
2022/04/03 00:15:43;;;;;;;18.30;7.60;;;;;;;-1.29;50.34;100092.84;110122;1257;22171;-76
2022/04/03 00:18:12;;;;;;;15.90;8.40;;;;;;;-1.32;50.49;100090.27;110023;1258;22426;-77
2022/04/03 00:20:46;;;;;;;17.10;7.30;;;;;;;-1.33;50.58;100092.04;110251;1256;21993;-77
2022/04/03 00:23:15;;;;;;;15.40;8.00;;;;;;;-1.34;50.56;100094.19;110109;1252;21971;-76
2022/04/03 00:25:48;;;;;;;18.60;7.60;;;;;;;-1.35;50.51;100090.49;110634;1252;21978;-75
2022/04/03 00:28:18;;;;;;;16.10;7.80;;;;;;;-1.38;50.64;100087.02;110759;1252;23611;-75
2022/04/03 00:30:48;;;;;;;16.00;7.60;;;;;;;-1.40;50.78;100091.98;110611;1252;21966;-76
2022/04/03 00:33:17;;;;;;;16.30;7.40;;;;;;;-1.42;50.70;100090.55;110541;1252;21961;-76
2022/04/03 00:35:47;;;;;;;14.00;7.70;;;;;;;-1.46;50.65;100089.25;110721;1252;21948;-77
2022/04/03 00:38:17;;;;;;;15.70;8.60;;;;;;;-1.49;50.77;100092.38;110497;1252;21965;-78
2022/04/03 00:40:48;;;;;;;18.00;8.20;;;;;;;-1.51;50.76;100094.39;110717;1252;21956;-74
2022/04/03 00:43:20;;;;;;;14.10;7.10;;;;;;;-1.54;50.84;100094.77;110500;1252;21971;-76
2022/04/03 00:45:49;;;;;;;11.70;7.60;;;;;;;-1.57;50.88;100095.33;110699;1252;22035;-75
2022/04/03 00:48:27;;;;;;;15.40;8.80;;;;;;;-1.60;51.03;100097.23;110637;1252;23615;-75
2022/04/03 00:50:56;;;;;;;14.20;7.60;;;;;;;-1.63;51.11;100097.41;110733;1252;21959;-76
2022/04/03 00:53:25;;;;;;;12.40;7.30;;;;;;;-1.65;51.09;100099.77;110625;1252;21968;-75
2022/04/03 00:55:57;;;;;;;15.50;6.30;;;;;;;-1.69;51.10;100101.76;110586;1252;22758;-76
2022/04/03 00:58:27;;;;;;;11.50;6.90;;;;;;;-1.72;51.24;100101.74;110226;1257;23577;-76
2022/04/03 01:00:56;;;;;;;16.60;7.00;;;;;;;-1.75;51.32;100105.23;110194;1257;22197;-74
2022/04/03 01:03:29;;;;;;;11.50;6.70;;;;;;;-1.80;51.28;100104.99;110097;1257;21979;-74
2022/04/03 01:05:58;;;;;;;20.30;8.10;;;;;;;-1.85;51.28;100104.48;110035;1258;21995;-75
2022/04/03 01:08:28;;;;;;;11.30;6.10;;;;;;;-1.89;51.34;100107.64;110336;1256;23480;-75
2022/04/03 01:10:57;;;;;;;10.70;6.30;;;;;;;-1.92;51.36;100106.63;110196;1258;21974;-75
2022/04/03 01:13:26;;;;;;;13.40;7.00;;;;;;;-1.97;51.51;100107.23;110149;1258;21978;-75
2022/04/03 01:16:00;;;;;;;12.50;6.90;;;;;;;-2.00;51.55;100106.96;110104;1255;21976;-75
2022/04/03 01:18:33;;;;;;;15.10;7.30;;;;;;;-2.04;51.74;100107.56;110734;1252;21994;-76
2022/04/03 01:21:01;;;;;;;12.60;8.00;;;;;;;-2.07;51.85;100104.77;110861;1252;23660;-76
2022/04/03 01:23:31;;;;;;;12.20;7.10;;;;;;;-2.09;51.98;100107.51;110734;1252;21962;-75
2022/04/03 01:26:00;;;;;;;9.80;6.60;;;;;;;-2.10;52.00;100113.09;110611;1252;21966;-76
2022/04/03 01:28:29;;;;;;;13.20;6.40;;;;;;;-2.11;52.10;100112.79;110653;1252;23014;-75
2022/04/03 01:31:01;;;;;;;13.20;6.70;;;;;;;-2.14;52.19;100113.13;110638;1252;23031;-75
2022/04/03 01:33:30;;;;;;;11.80;7.50;;;;;;;-2.16;52.14;100114.11;110669;1252;22395;-76
2022/04/03 01:35:59;;;;;;;15.10;7.00;;;;;;;-2.19;52.27;100113.77;110738;1252;22192;-76
2022/04/03 01:38:28;;;;;;;12.40;6.50;;;;;;;-2.20;52.43;100116.94;110663;1252;22653;-75
2022/04/03 01:40:57;;;;;;;12.00;6.80;;;;;;;-2.22;52.47;100120.98;110530;1253;23570;-76
2022/04/03 01:43:27;;;;;;;15.00;7.40;;;;;;;-2.23;52.58;100119.88;110765;1252;23048;-76
2022/04/03 01:46:01;;;;;;;14.40;6.70;;;;;;;-2.23;52.53;100123.17;110692;1252;23570;-76
2022/04/03 01:48:30;;;;;;;12.30;6.90;;;;;;;-2.24;52.61;100123.56;110784;1252;23561;-75
2022/04/03 01:50:59;;;;;;;10.80;6.90;;;;;;;-2.25;52.65;100125.18;110661;1252;21950;-75
2022/04/03 01:53:28;;;;;;;9.50;6.60;;;;;;;-2.26;52.79;100123.52;110796;1252;22988;-75
2022/04/03 01:56:07;;;;;;;10.10;7.10;;;;;;;-2.27;52.89;100124.63;110499;1252;21971;-76
2022/04/03 01:58:39;;;;;;;16.00;6.30;;;;;;;-2.28;52.90;100124.33;110539;1252;21965;-75
2022/04/03 02:01:08;;;;;;;12.60;7.20;;;;;;;-2.28;53.02;100124.86;110488;1252;21960;-76
2022/04/03 02:03:37;;;;;;;14.50;6.60;;;;;;;-2.30;53.09;100124.44;110732;1252;23575;-76
2022/04/03 02:06:09;;;;;;;10.70;6.40;;;;;;;-2.31;53.11;100126.75;110685;1252;24339;-76
2022/04/03 02:08:38;;;;;;;14.40;5.60;;;;;;;-2.34;53.11;100130.03;110749;1252;22946;-75
2022/04/03 02:11:07;;;;;;;9.00;5.80;;;;;;;-2.37;53.13;100131.60;110661;1252;21956;-75
2022/04/03 02:13:36;;;;;;;12.50;6.40;;;;;;;-2.40;53.13;100134.00;110666;1252;21964;-76
2022/04/03 02:16:05;;;;;;;12.00;6.80;;;;;;;-2.44;53.16;100135.25;110625;1252;21958;-76
2022/04/03 02:18:34;;;;;;;8.30;5.10;;;;;;;-2.47;53.32;100134.09;110678;1252;22737;-76
2022/04/03 02:21:04;;;;;;;13.50;7.40;;;;;;;-2.49;53.42;100137.83;110649;1252;23038;-75
2022/04/03 02:23:33;;;;;;;16.20;6.50;;;;;;;-2.51;53.49;100142.60;110539;1252;23565;-76
2022/04/03 02:26:02;;;;;;;9.10;5.80;;;;;;;-2.54;53.49;100143.13;110684;1252;21958;-77
2022/04/03 02:28:31;;;;;;;10.10;5.60;;;;;;;-2.58;53.57;100145.94;110634;1252;21966;-76
2022/04/03 02:31:01;;;;;;;12.00;6.50;;;;;;;-2.62;53.69;100147.67;110707;1252;21962;-76
2022/04/03 02:33:33;;;;;;;9.70;6.40;;;;;;;-2.65;53.79;100145.29;110826;1252;21961;-79
2022/04/03 02:36:03;;;;;;;11.10;5.60;;;;;;;-2.67;53.99;100145.05;110541;1252;23590;-78
2022/04/03 02:38:33;;;;;;;11.00;6.20;;;;;;;-2.66;54.18;100145.35;110643;1252;21959;-76
2022/04/03 02:41:02;;;;;;;9.80;5.90;;;;;;;-2.67;54.05;100144.90;110676;1252;24284;-75
2022/04/03 02:43:31;;;;;;;13.10;6.30;;;;;;;-2.68;54.24;100145.14;110660;1251;22420;-76
2022/04/03 02:46:00;;;;;;;15.80;6.30;;;;;;;-2.69;54.21;100146.91;110726;1252;23577;-76
2022/04/03 02:48:30;;;;;;;9.70;6.10;;;;;;;-2.69;54.25;100146.91;110650;1252;21969;-76
2022/04/03 02:51:01;;;;;;;9.90;6.40;;;;;;;-2.68;54.49;100152.87;110751;1252;21954;-76
2022/04/03 02:53:31;;;;;;;12.10;5.90;;;;;;;-2.68;54.53;100155.95;110666;1252;22341;-76
2022/04/03 02:56:00;;;;;;;9.50;5.80;;;;;;;-2.68;54.56;100158.73;110724;1252;22010;-76
2022/04/03 02:58:29;;;;;;;12.10;5.90;;;;;;;-2.69;54.69;100157.77;110737;1251;21978;-76
2022/04/03 03:00:58;;;;;;;11.00;6.60;;;;;;;-2.70;54.79;100161.29;110651;1252;21954;-76
2022/04/03 03:03:27;;;;;;;10.10;6.80;;;;;;;-2.73;54.86;100160.78;110683;1252;21958;-75
2022/04/03 03:05:57;;;;;;;8.90;6.20;;;;;;;-2.76;55.00;100164.73;110588;1252;23591;-76
2022/04/03 03:08:26;;;;;;;13.30;6.20;;;;;;;-2.78;54.97;100166.24;110699;1252;21975;-75
2022/04/03 03:10:57;;;;;;;9.70;6.10;;;;;;;-2.81;55.03;100167.27;110717;1252;23030;-75
2022/04/03 03:13:27;;;;;;;11.20;6.40;;;;;;;-2.84;55.18;100169.13;110690;1252;23577;-75
2022/04/03 03:15:59;;;;;;;11.70;6.20;;;;;;;-2.87;55.32;100170.70;110741;1252;23680;-75
2022/04/03 03:18:28;;;;;;;9.10;6.60;;;;;;;-2.90;55.38;100172.08;110642;1252;23680;-74
2022/04/03 03:20:58;;;;;;;10.20;6.30;;;;;;;-2.93;55.50;100168.98;110683;1252;22419;-75
2022/04/03 03:23:29;;;;;;;10.80;6.60;;;;;;;-2.96;55.53;100170.36;110712;1252;22731;-76
2022/04/03 03:26:01;;;;;;;14.70;7.10;;;;;;;-2.98;55.64;100171.11;110669;1252;21957;-75
2022/04/03 03:28:30;;;;;;;12.20;6.90;;;;;;;-2.99;55.64;100171.69;110657;1252;21955;-75
2022/04/03 03:30:59;;;;;;;12.50;6.40;;;;;;;-2.99;55.75;100173.05;110644;1252;23053;-74
2022/04/03 03:33:28;;;;;;;9.70;6.30;;;;;;;-2.97;55.87;100179.70;110752;1252;21958;-75
2022/04/03 03:35:57;;;;;;;11.10;6.10;;;;;;;-2.95;55.97;100182.48;110586;1252;21967;-76
2022/04/03 03:38:27;;;;;;;14.50;6.80;;;;;;;-2.94;56.06;100182.76;110679;1252;21971;-75
2022/04/03 03:40:56;;;;;;;11.90;6.30;;;;;;;-2.94;56.14;100182.79;110616;1252;21969;-76
2022/04/03 03:43:27;;;;;;;13.10;6.10;;;;;;;-2.95;56.26;100184.08;110527;1252;22340;-74
2022/04/03 03:45:56;;;;;;;10.30;5.20;;;;;;;-2.98;56.28;100185.24;110708;1251;22030;-75
2022/04/03 03:48:26;;;;;;;10.00;6.00;;;;;;;-3.00;56.34;100182.65;110533;1252;23043;-76
2022/04/03 03:50:55;;;;;;;12.00;5.90;;;;;;;-3.02;56.43;100184.45;110581;1252;23050;-77
2022/04/03 03:53:29;;;;;;;8.20;6.00;;;;;;;-3.04;56.63;100187.83;110665;1252;23511;-76
2022/04/03 03:56:00;;;;;;;10.40;6.20;;;;;;;-3.05;56.60;100191.71;110516;1252;21973;-76
2022/04/03 03:58:29;;;;;;;9.20;6.20;;;;;;;-3.08;56.74;100192.02;110429;1252;22388;-76
2022/04/03 04:01:00;;;;;;;11.70;6.00;;;;;;;-3.10;56.91;100197.28;110734;1252;23700;-76
2022/04/03 04:03:29;;;;;;;11.50;6.00;;;;;;;-3.11;57.02;100198.73;110462;1252;21963;-76
2022/04/03 04:06:02;;;;;;;9.10;5.80;;;;;;;-3.10;57.07;100197.98;110751;1252;22009;-76
2022/04/03 04:08:33;;;;;;;9.70;5.70;;;;;;;-3.09;57.14;100204.15;110683;1251;23000;-77
2022/04/03 04:11:03;;;;;;;11.00;5.00;;;;;;;-3.10;57.17;100207.08;110481;1252;21962;-77
2022/04/03 04:13:33;;;;;;;11.90;6.60;;;;;;;-3.08;57.17;100213.55;110664;1252;23570;-75
2022/04/03 04:16:05;;;;;;;11.80;6.40;;;;;;;-3.06;57.40;100219.13;110440;1252;22745;-76
2022/04/03 04:18:36;;;;;;;13.40;6.10;;;;;;;-3.04;57.44;100222.30;110596;1252;21956;-76
2022/04/03 04:21:06;;;;;;;12.30;5.50;;;;;;;-3.02;57.60;100224.25;110667;1252;21955;-75
2022/04/03 04:23:35;;;;;;;9.70;6.40;;;;;;;-3.01;57.69;100228.83;110706;1252;22009;-76
2022/04/03 04:26:04;;;;;;;9.30;6.00;;;;;;;-3.01;57.77;100229.86;110445;1252;23038;-76
2022/04/03 04:28:33;;;;;;;10.30;5.60;;;;;;;-3.01;57.94;100232.46;110473;1252;22421;-75
2022/04/03 04:31:02;;;;;;;12.90;6.60;;;;;;;-3.02;57.97;100239.95;110744;1252;23028;-75
2022/04/03 04:33:31;;;;;;;12.60;6.60;;;;;;;-3.05;58.05;100240.47;110546;1252;22010;-75
2022/04/03 04:36:00;;;;;;;10.10;6.50;;;;;;;-3.07;58.24;100244.00;110494;1252;22432;-75
2022/04/03 04:38:34;;;;;;;10.70;6.30;;;;;;;-3.08;58.37;100248.19;110496;1252;23667;-76
2022/04/03 04:41:09;;;;;;;7.50;5.30;;;;;;;-3.07;58.51;100251.05;110657;1252;21956;-76
2022/04/03 04:43:43;;;;;;;10.30;6.10;;;;;;;-3.04;58.67;100250.39;110619;1252;23775;-76
2022/04/03 04:46:12;;;;;;;10.80;6.30;;;;;;;-3.02;58.81;100254.89;110736;1252;23620;-76
2022/04/03 04:48:48;;;;;;;9.40;6.10;;;;;;;-2.97;58.89;100259.15;110557;1252;22383;-76
2022/04/03 04:51:17;;;;;;;9.60;6.20;;;;;;;-2.93;58.99;100264.08;110580;1252;21959;-76
2022/04/03 04:53:46;;;;;;;9.10;6.80;;;;;;;-2.90;59.11;100266.81;110889;1252;21965;-77
2022/04/03 04:56:16;;;;;;;10.30;6.40;;;;;;;-2.86;59.19;100269.54;110479;1252;21963;-76
2022/04/03 04:59:04;;;;;;;13.20;6.10;;;;;;;-2.81;59.37;100269.98;110523;1252;22007;-76
2022/04/03 05:02:06;;;;;;;;;;;;;;;;;;;;;
2022/04/03 05:05:06;;;;;;;11.70;6.50;;;;;;;-2.74;59.90;100268.52;110510;1255;22350;-74
2022/04/03 05:07:40;;;;;;;12.60;7.70;;;;;;;-2.70;59.96;100271.23;110572;1252;23801;-75
2022/04/03 05:10:14;;;;;;;12.60;6.60;;;;;;;-2.62;60.01;100271.81;110508;1255;23142;-75
2022/04/03 05:12:47;;;;;;;13.20;6.10;;;;;;;-2.55;60.19;100274.36;110221;1254;21964;-74
2022/04/03 05:15:21;;;;;;;12.50;7.70;;;;;;;-2.47;60.20;100275.30;110117;1255;21965;-75
2022/04/03 05:17:55;;;;;;;12.30;6.90;;;;;;;-2.39;60.18;100276.76;110553;1252;23647;-75
2022/04/03 05:20:30;;;;;;;16.70;8.80;;;;;;;-2.30;60.19;100281.77;110398;1254;22903;-76
2022/04/03 05:23:00;;;;;;;15.00;8.50;;;;;;;-2.22;60.40;100285.09;110395;1253;21982;-76
2022/04/03 05:25:38;;;;;;;10.60;7.40;;;;;;;-2.13;60.28;100288.91;110502;1252;22779;-75
2022/04/03 05:28:26;;;;;;;10.10;7.90;;;;;;;-2.07;60.08;100292.55;110487;1253;22755;-74
2022/04/03 05:31:03;;;;;;;14.20;7.20;;;;;;;-2.03;60.20;100290.42;110422;1254;23091;-75
2022/04/03 05:33:38;;;;;;;11.30;7.40;;;;;;;-1.97;60.34;100296.75;110411;1252;21982;-75
2022/04/03 05:36:12;;;;;;;12.30;7.50;;;;;;;-1.90;60.44;100299.29;110545;1254;22726;-75
2022/04/03 05:38:51;;;;;;;11.20;9.30;;;;;;;-1.83;60.44;100302.36;109900;1258;22969;-75
2022/04/03 05:41:22;;;;;;;15.10;9.10;;;;;;;-1.80;60.23;100307.55;109624;1260;22040;-75
2022/04/03 05:44:09;;;;;;;17.10;10.50;;;;;;;-1.79;60.22;100309.55;109217;1266;22025;-75
2022/04/03 05:46:41;;;;;;;16.60;11.20;;;;;;;-1.75;60.17;100315.85;109061;1266;22256;-75
2022/04/03 05:49:27;;;;;;;11.40;8.80;;;;;;;-1.72;60.15;100314.09;109183;1266;22095;-75
2022/04/03 05:51:57;;;;;;;11.10;8.20;;;;;;;-1.68;60.23;100317.15;109271;1263;23432;-74
2022/04/03 05:54:27;;;;;;;12.30;9.10;;;;;;;-1.59;60.45;100321.81;108870;1270;23700;-75
2022/04/03 05:57:01;;;;;;;12.40;8.40;;;;;;;-1.45;60.59;100324.23;108628;1276;21998;-75
2022/04/03 06:00:54;;;;;;;;;;;;;;;;;;;;;
2022/04/03 06:05:17;;;;;;;13.00;9.50;;;;;;;-0.99;61.09;100324.08;108565;1275;22015;-77
2022/04/03 06:09:43;;;;;;;;;;;;;;;;;;;;;
2022/04/03 06:17:03;;;;;;;14.80;8.90;;;;;;;0.43;61.81;100332.23;107502;1288;22013;-78
2022/04/03 06:20:02;;;;;;;16.80;9.60;;;;;;;1.05;61.87;100333.54;107153;1292;21988;-77
2022/04/03 06:22:44;;;;;;;16.40;11.40;;;;;;;1.55;60.96;100331.70;107082;1291;22079;-77
2022/04/03 06:25:16;;;;;;;17.00;8.90;;;;;;;1.90;59.25;100338.02;106876;1291;23774;-77
2022/04/03 06:27:58;;;;;;;13.10;9.00;;;;;;;2.17;58.20;100338.80;107392;1290;22090;-78
2022/04/03 06:30:41;;;;;;;17.50;8.70;;;;;;;2.55;58.15;100347.05;107181;1289;22019;-78
2022/04/03 06:33:25;;;;;;;11.80;7.50;;;;;;;2.73;55.65;100348.47;103188;1289;5421049;-77
2022/04/03 06:36:06;;;;;;;9.00;7.30;;;;;;;2.70;54.24;100350.80;107686;1285;24299;-77
2022/04/03 06:38:56;;;;;;;12.30;7.60;;;;;;;2.69;53.95;100349.97;107708;1285;22012;-78
2022/04/03 06:42:23;;;;;;;;;;;;;;;;;;;;;
2022/04/03 06:46:02;;;;;;;10.50;7.40;;;;;;;2.69;52.78;100357.63;106944;1294;23623;-77
2022/04/03 06:48:57;;;;;;;;;;;;;;;;;;;;;
2022/04/03 06:52:06;;;;;;;;;;;;;;;;;;;;;
2022/04/03 06:55:13;;;;;;;;;;;;;;;;;;;;;
2022/04/03 06:59:06;;;;;;;;;;;;;;;;;;;;;
2022/04/03 07:02:31;;;;;;;18.10;9.70;;;;;;;2.07;50.86;100373.98;108240;1279;22012;-77
2022/04/03 07:05:25;;;;;;;14.70;9.70;;;;;;;1.96;51.04;100373.73;108242;1281;22689;-78
2022/04/03 07:08:23;;;;;;;14.00;8.20;;;;;;;1.92;51.21;100376.98;108108;1282;23124;-77
2022/04/03 07:12:20;;;;;;;;;;;;;;;;;;;;;
2022/04/03 07:15:07;;;;;;;13.50;8.70;;;;;;;2.02;51.52;100382.48;108397;1276;21991;-78
2022/04/03 07:22:52;;;;;;;8.80;5.90;;;;;;;2.09;51.11;100389.90;108013;1283;23159;-76
2022/04/03 07:26:22;;;;;;;10.10;7.20;;;;;;;2.28;51.69;100396.16;108096;1283;22018;-77
2022/04/03 07:30:24;;;;;;;;;;;;;;;;;;;;;
2022/04/03 07:33:55;;;;;;;10.20;6.70;;;;;;;2.98;50.35;100402.38;110391;1257;21933;-77
2022/04/03 07:38:22;;;;;;;11.10;6.20;;;;;;;3.33;50.19;100406.30;109206;1267;23042;-79
2022/04/03 07:42:46;;;;;;;;;;;;;;;;;;;;;
2022/04/03 07:45:28;;;;;;;9.00;4.70;;;;;;;3.82;48.30;100410.26;105336;1288;22311;-78
2022/04/03 07:48:28;;;;;;;;;;;;;;;;;;;;;
2022/04/03 07:51:11;;;;;;;;;;;;;;;;;;;;;
2022/04/03 07:54:40;;;;;;;;;;;;;;;;;;;;;
2022/04/03 07:57:20;;;;;;;25.30;12.50;;;;;;;4.38;45.69;100417.90;107417;1287;22251;-78
2022/04/03 07:59:55;;;;;;;12.20;7.80;;;;;;;4.41;44.93;100418.56;108236;1277;22020;-78
2022/04/03 08:02:50;;;;;;;;;;;;;;;;;;;;;
2022/04/03 08:05:40;;;;;;;12.30;4.20;;;;;;;4.69;44.59;100420.42;108449;1276;22156;-79
2022/04/03 08:08:58;;;;;;;5.40;3.90;;;;;;;4.91;44.50;100422.23;108612;1276;22268;-79
2022/04/03 08:12:31;;;;;;;;;;;;;;;;;;;;;
2022/04/03 08:15:29;;;;;;;;;;;;;;;;;;;;;
2022/04/03 08:19:07;;;;;;;;;;;;;;;;;;;;;
2022/04/03 08:22:45;;;;;;;9.00;5.20;;;;;;;6.81;39.51;100422.04;109526;1261;22256;-78
2022/04/03 08:26:38;;;;;;;4.20;3.20;;;;;;;6.84;39.02;100426.17;109553;1262;23143;-77
2022/04/03 08:29:44;;;;;;;7.20;5.20;;;;;;;6.80;37.85;100419.00;109913;1264;21969;-79
2022/04/03 08:32:41;;;;;;;6.20;4.30;;;;;;;6.56;37.18;100422.42;109439;1264;22764;-78
2022/04/03 08:35:43;;;;;;;;;;;;;;;;;;;;;
2022/04/03 08:43:06;;;;;;;12.70;7.60;;;;;;;5.41;37.49;100423.92;108510;1273;23048;-78
2022/04/03 08:45:46;;;;;;;7.90;5.70;;;;;;;5.10;38.00;100422.31;108472;1274;23101;-77
2022/04/03 08:48:21;;;;;;;13.70;6.70;;;;;;;4.92;38.21;100425.11;108140;1279;22022;-78
2022/04/03 08:51:24;;;;;;;;;;;;;;;;;;;;;
2022/04/03 08:53:54;;;;;;;8.00;5.50;;;;;;;4.76;38.97;100424.52;107495;1288;22153;-78
2022/04/03 08:56:54;;;;;;;7.80;4.90;;;;;;;4.88;38.80;100428.38;107530;1288;23247;-77
2022/04/03 08:59:37;;;;;;;10.80;4.60;;;;;;;4.84;38.04;100428.23;107670;1282;22038;-78
2022/04/03 09:02:44;;;;;;;14.10;7.80;;;;;;;4.64;37.74;100429.19;108046;1279;22004;-79
2022/04/03 09:05:37;;;;;;;16.20;7.70;;;;;;;4.52;37.74;100426.05;108146;1279;21992;-77
2022/04/03 09:08:09;;;;;;;11.30;5.30;;;;;;;4.64;39.03;100426.56;108041;1282;22094;-78
2022/04/03 09:11:07;;;;;;;6.80;5.20;;;;;;;5.37;39.40;100425.45;107828;1285;22012;-77
2022/04/03 09:14:14;;;;;;;8.80;5.80;;;;;;;5.73;37.81;100430.16;107920;1282;21998;-77
2022/04/03 09:22:36;;;;;;;;;;;;;;;;;;;;;
2022/04/03 09:25:53;;;;;;;3.50;2.80;;;;;;;4.81;36.93;100439.96;108133;1273;21989;-78
2022/04/03 09:28:37;;;;;;;16.70;7.80;;;;;;;4.77;37.18;100441.75;108377;1276;23060;-78
2022/04/03 09:31:30;;;;;;;6.40;3.80;;;;;;;4.78;37.45;100445.27;108702;1270;23693;-78
2022/04/03 09:34:43;;;;;;;8.00;4.20;;;;;;;4.69;37.09;100447.56;108818;1270;23686;-77
2022/04/03 09:37:24;;;;;;;6.50;3.90;;;;;;;4.49;37.07;100449.25;108967;1270;21985;-77
2022/04/03 09:39:57;;;;;;;4.70;3.00;;;;;;;4.31;37.52;100454.73;108916;1268;23636;-78
2022/04/03 09:42:35;;;;;;;5.00;3.80;;;;;;;4.24;38.00;100449.05;108868;1270;21983;-78
2022/04/03 09:45:27;;;;;;;6.30;4.20;;;;;;;4.18;38.42;100450.59;109037;1270;23721;-78
2022/04/03 09:48:41;;;;;;;5.00;3.20;;;;;;;4.28;38.93;100452.70;109406;1264;22641;-77
2022/04/03 09:51:34;;;;;;;9.50;5.70;;;;;;;4.36;39.14;100457.52;109643;1265;22053;-77
2022/04/03 09:54:06;;;;;;;11.10;6.80;;;;;;;4.69;39.57;100452.71;109347;1264;21973;-78
2022/04/03 09:56:48;;;;;;;6.30;4.00;;;;;;;4.97;39.20;100452.06;109293;1265;22085;-79
2022/04/03 09:59:22;;;;;;;5.40;4.30;;;;;;;5.12;38.50;100451.15;110106;1256;22065;-78
2022/04/03 10:02:00;;;;;;;8.60;4.60;;;;;;;5.27;38.07;100447.04;109663;1258;21986;-79
2022/04/03 10:04:50;;;;;;;6.10;3.10;;;;;;;5.84;38.87;100443.32;109999;1259;21957;-79
2022/04/03 10:07:45;;;;;;;3.30;2.50;;;;;;;7.58;39.27;100444.25;108805;1270;23870;-77
2022/04/03 10:10:25;;;;;;;4.00;2.90;;;;;;;9.03;37.83;100442.10;108867;1270;22005;-77
2022/04/03 10:13:13;;;;;;;4.90;3.20;;;;;;;10.09;34.28;100439.29;108869;1270;21986;-78
2022/04/03 10:15:52;;;;;;;7.10;4.40;;;;;;;10.09;31.29;100437.31;109143;1270;22527;-78
2022/04/03 10:22:41;;;;;;;9.10;4.30;;;;;;;8.99;30.68;100439.20;109318;1264;21982;-77
2022/04/03 10:25:49;;;;;;;;;;;;;;;;;;;;;
2022/04/03 10:28:29;;;;;;;7.60;3.90;;;;;;;7.50;31.05;100440.76;109451;1264;22333;-78
2022/04/03 10:31:19;;;;;;;6.30;4.20;;;;;;;7.02;31.48;100434.81;108664;1270;22068;-78
2022/04/03 10:33:57;;;;;;;5.30;3.80;;;;;;;6.59;31.97;100431.03;108864;1269;21990;-76
2022/04/03 10:36:52;;;;;;;7.20;4.00;;;;;;;6.30;32.31;100433.05;108781;1270;23615;-78
2022/04/03 10:39:31;;;;;;;10.50;4.90;;;;;;;6.05;32.71;100435.98;108783;1269;22012;-78
2022/04/03 10:42:55;;;;;;;4.30;2.90;;;;;;;5.87;33.04;100434.33;108736;1270;21981;-78
2022/04/03 10:45:55;;;;;;;11.20;4.80;;;;;;;5.90;33.54;100433.10;109345;1264;21974;-77
2022/04/03 10:49:13;;;;;;;;;;;;;;;;;;;;;
2022/04/03 10:54:16;;;;;;;;;;;;;;;;;;;;;
2022/04/03 10:58:06;;;;;;;;;;;;;;;;;;;;;
2022/04/03 11:02:19;;;;;;;9.40;5.60;;;;;;;6.26;31.86;100424.40;108530;1270;22031;-80
2022/04/03 11:05:43;;;;;;;15.20;8.30;;;;;;;6.02;32.58;100423.42;109173;1270;21986;-78
2022/04/03 11:09:39;;;;;;;;;;;;;;;;;;;;;
2022/04/03 11:13:33;;;;;;;18.60;8.60;;;;;;;5.81;33.40;100426.46;108281;1279;23076;-77
2022/04/03 11:16:48;;;;;;;17.30;7.00;;;;;;;5.72;33.67;100424.13;108125;1279;22010;-77
2022/04/03 11:24:50;;;;;;;13.70;7.20;;;;;;;5.63;33.80;100419.13;107716;1288;22071;-76
2022/04/03 11:27:44;;;;;;;21.10;13.90;;;;;;;5.73;34.14;100416.52;106930;1291;25021;-77
2022/04/03 11:30:31;;;;;;;16.80;11.10;;;;;;;5.88;34.46;100413.45;106672;1291;22078;-75
2022/04/03 11:33:06;;;;;;;8.00;4.80;;;;;;;6.06;34.33;100410.14;107353;1288;22109;-75
2022/04/03 11:35:47;;;;;;;7.30;3.90;;;;;;;6.17;33.60;100407.23;107488;1287;22488;-75
2022/04/03 11:38:16;;;;;;;6.60;3.50;;;;;;;6.13;32.76;100405.88;107499;1288;22134;-75
2022/04/03 11:41:00;;;;;;;6.40;4.30;;;;;;;5.97;32.58;100402.23;107437;1287;23618;-76
2022/04/03 11:44:15;;;;;;;;;;;;;;;;;;;;;
2022/04/03 11:47:49;;;;;;;;;;;;;;;;;;;;;
2022/04/03 11:51:30;;;;;;;10.90;6.00;;;;;;;5.64;32.35;100395.98;108020;1282;22637;-78
2022/04/03 11:54:00;;;;;;;7.40;3.40;;;;;;;5.58;32.73;100397.61;107438;1288;23071;-76
2022/04/03 11:56:34;;;;;;;8.50;4.10;;;;;;;5.58;32.74;100398.83;107358;1288;23830;-77
2022/04/03 11:59:04;;;;;;;9.60;4.40;;;;;;;5.61;32.83;100399.28;107472;1282;23127;-77
2022/04/03 12:01:51;;;;;;;6.50;3.50;;;;;;;5.65;32.85;100400.24;108675;1270;21983;-76
2022/04/03 12:04:42;;;;;;;6.10;2.90;;;;;;;5.69;32.78;100400.67;109076;1261;23514;-76
2022/04/03 12:07:19;;;;;;;6.50;3.70;;;;;;;5.68;32.65;100400.94;108912;1270;21979;-75
2022/04/03 12:09:59;;;;;;;4.00;2.50;;;;;;;5.65;32.65;100399.89;108779;1270;24218;-75
2022/04/03 12:12:33;;;;;;;8.40;2.70;;;;;;;5.71;32.72;100397.30;108758;1270;22029;-76
2022/04/03 12:15:14;;;;;;;2.80;2.00;;;;;;;5.89;32.75;100393.48;108894;1270;21975;-76
2022/04/03 12:18:10;;;;;;;;;;;;;;;;;;;;;
2022/04/03 12:20:45;;;;;;;3.20;2.10;;;;;;;6.18;31.89;100389.69;108445;1273;23072;-76
2022/04/03 12:23:20;;;;;;;4.40;2.70;;;;;;;6.21;31.44;100392.94;108407;1273;24764;-75
2022/04/03 12:25:51;;;;;;;7.90;3.50;;;;;;;6.17;31.16;100396.44;108392;1273;23050;-75
2022/04/03 12:28:22;;;;;;;4.50;2.50;;;;;;;6.08;31.02;100392.79;108677;1270;23840;-74
2022/04/03 12:31:00;;;;;;;4.30;1.90;;;;;;;5.94;30.85;100391.31;109033;1261;22001;-77
2022/04/03 12:33:36;;;;;;;5.60;2.80;;;;;;;5.79;30.91;100389.27;109158;1267;22031;-75
2022/04/03 12:36:11;;;;;;;7.70;3.50;;;;;;;5.76;31.18;100386.73;109190;1264;22470;-75
2022/04/03 12:38:50;;;;;;;6.50;3.40;;;;;;;5.76;31.33;100378.89;109212;1264;23604;-74
2022/04/03 12:41:49;;;;;;;5.40;3.10;;;;;;;5.92;31.58;100374.55;109663;1261;23807;-82
2022/04/03 12:45:52;;;;;;;;;;;;;;;;;;;;;
2022/04/03 12:49:44;;;;;;;;;;;;;;;;;;;;;
2022/04/03 12:53:17;;;;;;;4.90;3.00;;;;;;;6.43;30.59;100373.41;110545;1257;22967;-80
2022/04/03 13:00:44;;;;;;;;;;;;;;;;;;;;;
2022/04/03 13:04:43;;;;;;;;;;;;;;;;;;;;;
2022/04/03 13:08:54;;;;;;;4.70;3.60;;;;;;;6.14;29.88;100365.41;108909;1273;23667;-81
2022/04/03 13:12:41;;;;;;;5.40;2.70;;;;;;;6.03;29.91;100368.80;107901;1287;22008;-81
2022/04/03 13:16:11;;;;;;;7.10;3.00;;;;;;;6.01;30.11;100361.27;107427;1292;22021;-79
2022/04/03 13:19:43;;;;;;;;;;;;;;;;;;;;;
2022/04/03 13:23:39;;;;;;;;;;;;;;;;;;;;;
2022/04/03 13:25:49;;;;;;;4.30;2.30;;;;;;;5.91;30.05;100361.83;106485;1294;22046;-80
2022/04/03 13:28:27;;;;;;;8.30;3.30;;;;;;;5.72;29.94;100361.05;107256;1290;22879;-80
2022/04/03 13:31:32;;;;;;;7.30;4.00;;;;;;;5.58;30.32;100366.33;107694;1287;22019;-78
2022/04/03 13:34:49;;;;;;;6.50;3.60;;;;;;;5.43;30.56;100371.28;108093;1280;23043;-79
2022/04/03 13:38:21;;;;;;;8.40;4.40;;;;;;;5.23;31.02;100362.92;108080;1280;23241;-79
2022/04/03 13:41:55;;;;;;;;;;;;;;;;;;;;;
2022/04/03 13:45:57;;;;;;;5.70;3.60;;;;;;;5.26;31.99;100362.28;108483;1276;22009;-79
2022/04/03 13:49:58;;;;;;;;;;;;;;;;;;;;;
2022/04/03 13:53:07;;;;;;;9.90;4.00;;;;;;;5.31;32.14;100356.41;108299;1277;22028;-79
2022/04/03 13:56:24;;;;;;;;;;;;;;;;;;;;;
2022/04/03 13:59:32;;;;;;;6.50;3.50;;;;;;;5.47;32.33;100354.37;108724;1268;22015;-79
2022/04/03 14:02:56;;;;;;;;;;;;;;;;;;;;;
2022/04/03 14:06:22;;;;;;;6.50;4.00;;;;;;;5.61;32.27;100349.29;109844;1262;22114;-80
2022/04/03 14:08:59;;;;;;;11.40;3.70;;;;;;;5.61;32.15;100352.79;110148;1259;23674;-78
2022/04/03 14:11:37;;;;;;;6.40;3.60;;;;;;;5.58;31.97;100350.28;110331;1255;23032;-77
2022/04/03 14:14:31;;;;;;;7.80;3.60;;;;;;;5.55;31.88;100350.20;110247;1256;22805;-78
2022/04/03 14:18:06;;;;;;;7.10;4.30;;;;;;;5.47;32.01;100351.95;110445;1257;22181;-79
2022/04/03 14:20:57;;;;;;;7.30;4.10;;;;;;;5.43;32.22;100350.14;109963;1257;23068;-78
2022/04/03 14:23:42;;;;;;;10.00;5.00;;;;;;;5.46;32.33;100345.43;110335;1254;21968;-79
2022/04/03 14:26:45;;;;;;;;;;;;;;;;;;;;;
2022/04/03 14:30:07;;;;;;;7.80;3.40;;;;;;;5.50;32.33;100340.64;110370;1257;22079;-78